sensor_id;sensor_type;location;lat;lon;timestamp;temperature;humidity
7686;DHT22;3885;51.474;-2.576;2023-03-21T00:04:18;10.60;99.90
7686;DHT22;3885;51.474;-2.576;2023-03-21T00:06:45;10.60;99.90
7686;DHT22;3885;51.474;-2.576;2023-03-21T00:09:12;10.60;99.90
7686;DHT22;3885;51.474;-2.576;2023-03-21T00:11:39;10.60;99.90
7686;DHT22;3885;51.474;-2.576;2023-03-21T00:14:07;10.60;99.90
7686;DHT22;3885;51.474;-2.576;2023-03-21T00:16:39;10.50;99.90
7686;DHT22;3885;51.474;-2.576;2023-03-21T00:19:06;10.50;99.90
7686;DHT22;3885;51.474;-2.576;2023-03-21T00:21:34;10.50;99.90
7686;DHT22;3885;51.474;-2.576;2023-03-21T00:24:03;10.60;99.90
7686;DHT22;3885;51.474;-2.576;2023-03-21T00:26:31;10.50;99.90
7686;DHT22;3885;51.474;-2.576;2023-03-21T00:28:58;10.40;99.90
7686;DHT22;3885;51.474;-2.576;2023-03-21T00:31:27;10.40;99.90
7686;DHT22;3885;51.474;-2.576;2023-03-21T00:33:54;10.40;99.90
7686;DHT22;3885;51.474;-2.576;2023-03-21T00:36:21;10.40;99.90
7686;DHT22;3885;51.474;-2.576;2023-03-21T00:38:50;10.40;99.90
7686;DHT22;3885;51.474;-2.576;2023-03-21T00:41:17;10.40;99.90
7686;DHT22;3885;51.474;-2.576;2023-03-21T00:43:44;10.40;99.90
7686;DHT22;3885;51.474;-2.576;2023-03-21T00:46:11;10.30;99.90
7686;DHT22;3885;51.474;-2.576;2023-03-21T00:48:39;10.30;99.90
7686;DHT22;3885;51.474;-2.576;2023-03-21T00:51:11;10.30;99.90
7686;DHT22;3885;51.474;-2.576;2023-03-21T00:53:40;10.30;99.90
7686;DHT22;3885;51.474;-2.576;2023-03-21T00:56:08;10.30;99.90
7686;DHT22;3885;51.474;-2.576;2023-03-21T00:58:35;10.30;99.90
7686;DHT22;3885;51.474;-2.576;2023-03-21T01:03:32;10.30;99.90
7686;DHT22;3885;51.474;-2.576;2023-03-21T01:06:09;10.30;99.90
7686;DHT22;3885;51.474;-2.576;2023-03-21T01:08:39;10.30;99.90
7686;DHT22;3885;51.474;-2.576;2023-03-21T01:11:09;10.30;99.90
7686;DHT22;3885;51.474;-2.576;2023-03-21T01:13:36;10.20;99.90
7686;DHT22;3885;51.474;-2.576;2023-03-21T01:16:05;10.20;99.90
7686;DHT22;3885;51.474;-2.576;2023-03-21T01:23:30;10.20;99.90
7686;DHT22;3885;51.474;-2.576;2023-03-21T01:25:57;10.10;99.90
7686;DHT22;3885;51.474;-2.576;2023-03-21T01:28:25;10.10;99.90
7686;DHT22;3885;51.474;-2.576;2023-03-21T01:33:20;10.20;99.90
7686;DHT22;3885;51.474;-2.576;2023-03-21T01:35:47;10.20;99.90
7686;DHT22;3885;51.474;-2.576;2023-03-21T01:38:14;10.20;99.90
7686;DHT22;3885;51.474;-2.576;2023-03-21T01:40:43;10.20;99.90
7686;DHT22;3885;51.474;-2.576;2023-03-21T01:43:23;10.20;99.90
7686;DHT22;3885;51.474;-2.576;2023-03-21T01:46:16;10.20;99.90
7686;DHT22;3885;51.474;-2.576;2023-03-21T01:48:49;10.20;99.90
7686;DHT22;3885;51.474;-2.576;2023-03-21T01:53:46;10.20;99.90
7686;DHT22;3885;51.474;-2.576;2023-03-21T01:56:18;10.20;99.90
7686;DHT22;3885;51.474;-2.576;2023-03-21T01:58:48;10.20;99.90
7686;DHT22;3885;51.474;-2.576;2023-03-21T02:01:16;10.20;99.90
7686;DHT22;3885;51.474;-2.576;2023-03-21T02:03:47;10.10;99.90
7686;DHT22;3885;51.474;-2.576;2023-03-21T02:06:31;10.10;99.90
7686;DHT22;3885;51.474;-2.576;2023-03-21T02:09:02;10.20;99.90
7686;DHT22;3885;51.474;-2.576;2023-03-21T02:11:31;10.20;99.90
7686;DHT22;3885;51.474;-2.576;2023-03-21T02:13:58;10.20;99.90
7686;DHT22;3885;51.474;-2.576;2023-03-21T02:16:33;10.20;99.90
7686;DHT22;3885;51.474;-2.576;2023-03-21T02:22:08;10.20;99.90
7686;DHT22;3885;51.474;-2.576;2023-03-21T02:25:15;10.20;99.90
7686;DHT22;3885;51.474;-2.576;2023-03-21T02:27:51;10.10;99.90
7686;DHT22;3885;51.474;-2.576;2023-03-21T02:33:40;10.10;99.90
7686;DHT22;3885;51.474;-2.576;2023-03-21T02:36:23;10.10;99.90
7686;DHT22;3885;51.474;-2.576;2023-03-21T02:38:55;10.10;99.90
7686;DHT22;3885;51.474;-2.576;2023-03-21T02:41:31;10.00;99.90
7686;DHT22;3885;51.474;-2.576;2023-03-21T02:44:06;10.10;99.90
7686;DHT22;3885;51.474;-2.576;2023-03-21T02:46:39;10.10;99.90
7686;DHT22;3885;51.474;-2.576;2023-03-21T02:51:39;10.10;99.90
7686;DHT22;3885;51.474;-2.576;2023-03-21T02:54:12;10.10;99.90
7686;DHT22;3885;51.474;-2.576;2023-03-21T02:56:40;10.10;99.90
7686;DHT22;3885;51.474;-2.576;2023-03-21T02:59:08;10.10;99.90
7686;DHT22;3885;51.474;-2.576;2023-03-21T03:01:35;10.10;99.90
7686;DHT22;3885;51.474;-2.576;2023-03-21T03:04:03;10.20;99.90
7686;DHT22;3885;51.474;-2.576;2023-03-21T03:06:38;10.20;99.90
7686;DHT22;3885;51.474;-2.576;2023-03-21T03:14:35;10.10;99.90
7686;DHT22;3885;51.474;-2.576;2023-03-21T03:19:47;10.20;99.90
7686;DHT22;3885;51.474;-2.576;2023-03-21T03:22:23;10.20;99.90
7686;DHT22;3885;51.474;-2.576;2023-03-21T03:24:56;10.20;99.90
7686;DHT22;3885;51.474;-2.576;2023-03-21T03:27:27;10.20;99.90
7686;DHT22;3885;51.474;-2.576;2023-03-21T03:29:57;10.20;99.90
7686;DHT22;3885;51.474;-2.576;2023-03-21T03:32:28;10.20;99.90
7686;DHT22;3885;51.474;-2.576;2023-03-21T03:34:57;10.20;99.90
7686;DHT22;3885;51.474;-2.576;2023-03-21T03:37:28;10.20;99.90
7686;DHT22;3885;51.474;-2.576;2023-03-21T03:40:00;10.20;99.90
7686;DHT22;3885;51.474;-2.576;2023-03-21T03:42:34;10.30;99.90
7686;DHT22;3885;51.474;-2.576;2023-03-21T03:45:02;10.30;99.90
7686;DHT22;3885;51.474;-2.576;2023-03-21T03:47:33;10.30;99.90
7686;DHT22;3885;51.474;-2.576;2023-03-21T03:50:08;10.30;99.90
7686;DHT22;3885;51.474;-2.576;2023-03-21T03:52:41;10.30;99.90
7686;DHT22;3885;51.474;-2.576;2023-03-21T03:55:13;10.40;99.90
7686;DHT22;3885;51.474;-2.576;2023-03-21T03:57:42;10.40;99.90
7686;DHT22;3885;51.474;-2.576;2023-03-21T04:02:38;10.40;99.90
7686;DHT22;3885;51.474;-2.576;2023-03-21T04:05:05;10.40;99.90
7686;DHT22;3885;51.474;-2.576;2023-03-21T04:07:32;10.40;99.90
7686;DHT22;3885;51.474;-2.576;2023-03-21T04:09:59;10.40;99.90
7686;DHT22;3885;51.474;-2.576;2023-03-21T04:12:28;10.40;99.90
7686;DHT22;3885;51.474;-2.576;2023-03-21T04:17:22;10.40;99.90
7686;DHT22;3885;51.474;-2.576;2023-03-21T04:22:16;10.50;99.90
7686;DHT22;3885;51.474;-2.576;2023-03-21T04:27:10;10.50;99.90
7686;DHT22;3885;51.474;-2.576;2023-03-21T04:29:39;10.50;99.90
7686;DHT22;3885;51.474;-2.576;2023-03-21T04:32:06;10.50;99.90
7686;DHT22;3885;51.474;-2.576;2023-03-21T04:34:44;10.50;99.90
7686;DHT22;3885;51.474;-2.576;2023-03-21T04:39:41;10.50;99.90
7686;DHT22;3885;51.474;-2.576;2023-03-21T04:42:08;10.60;99.90
7686;DHT22;3885;51.474;-2.576;2023-03-21T04:47:04;10.60;99.90
7686;DHT22;3885;51.474;-2.576;2023-03-21T04:49:31;10.70;99.90
7686;DHT22;3885;51.474;-2.576;2023-03-21T04:51:58;10.60;99.90
7686;DHT22;3885;51.474;-2.576;2023-03-21T04:54:25;10.70;99.90
7686;DHT22;3885;51.474;-2.576;2023-03-21T04:56:52;10.60;99.90
7686;DHT22;3885;51.474;-2.576;2023-03-21T04:59:19;10.70;99.90
7686;DHT22;3885;51.474;-2.576;2023-03-21T05:01:46;10.70;99.90
7686;DHT22;3885;51.474;-2.576;2023-03-21T05:04:18;10.70;99.90
7686;DHT22;3885;51.474;-2.576;2023-03-21T05:06:45;10.70;99.90
7686;DHT22;3885;51.474;-2.576;2023-03-21T05:09:12;10.70;99.90
7686;DHT22;3885;51.474;-2.576;2023-03-21T05:11:40;10.70;99.90
7686;DHT22;3885;51.474;-2.576;2023-03-21T05:14:08;10.80;99.90
7686;DHT22;3885;51.474;-2.576;2023-03-21T05:16:38;10.80;99.90
7686;DHT22;3885;51.474;-2.576;2023-03-21T05:21:41;10.80;99.90
7686;DHT22;3885;51.474;-2.576;2023-03-21T05:24:11;10.70;99.90
7686;DHT22;3885;51.474;-2.576;2023-03-21T05:26:39;10.80;99.90
7686;DHT22;3885;51.474;-2.576;2023-03-21T05:29:07;10.70;99.90
7686;DHT22;3885;51.474;-2.576;2023-03-21T05:31:34;10.60;99.90
7686;DHT22;3885;51.474;-2.576;2023-03-21T05:34:01;10.60;99.90
7686;DHT22;3885;51.474;-2.576;2023-03-21T05:36:28;10.60;99.90
7686;DHT22;3885;51.474;-2.576;2023-03-21T05:38:59;10.60;99.90
7686;DHT22;3885;51.474;-2.576;2023-03-21T05:41:27;10.60;99.90
7686;DHT22;3885;51.474;-2.576;2023-03-21T05:46:21;10.60;99.90
7686;DHT22;3885;51.474;-2.576;2023-03-21T05:48:48;10.50;99.90
7686;DHT22;3885;51.474;-2.576;2023-03-21T05:51:15;10.50;99.90
7686;DHT22;3885;51.474;-2.576;2023-03-21T05:53:43;10.50;99.90
7686;DHT22;3885;51.474;-2.576;2023-03-21T05:56:11;10.50;99.90
7686;DHT22;3885;51.474;-2.576;2023-03-21T06:01:06;10.40;99.90
7686;DHT22;3885;51.474;-2.576;2023-03-21T06:03:33;10.40;99.90
7686;DHT22;3885;51.474;-2.576;2023-03-21T06:06:00;10.40;99.90
7686;DHT22;3885;51.474;-2.576;2023-03-21T06:08:28;10.40;99.90
7686;DHT22;3885;51.474;-2.576;2023-03-21T06:10:55;10.40;99.90
7686;DHT22;3885;51.474;-2.576;2023-03-21T06:13:23;10.30;99.90
7686;DHT22;3885;51.474;-2.576;2023-03-21T06:15:50;10.30;99.90
7686;DHT22;3885;51.474;-2.576;2023-03-21T06:18:17;10.30;99.90
7686;DHT22;3885;51.474;-2.576;2023-03-21T06:23:11;10.30;99.90
7686;DHT22;3885;51.474;-2.576;2023-03-21T06:28:05;10.40;99.90
7686;DHT22;3885;51.474;-2.576;2023-03-21T06:30:33;10.40;99.90
7686;DHT22;3885;51.474;-2.576;2023-03-21T06:35:28;10.50;99.90
7686;DHT22;3885;51.474;-2.576;2023-03-21T06:37:55;10.50;99.90
7686;DHT22;3885;51.474;-2.576;2023-03-21T06:40:23;10.50;99.90
7686;DHT22;3885;51.474;-2.576;2023-03-21T06:42:50;10.40;99.90
7686;DHT22;3885;51.474;-2.576;2023-03-21T06:45:17;10.40;99.90
7686;DHT22;3885;51.474;-2.576;2023-03-21T06:47:45;10.50;99.90
7686;DHT22;3885;51.474;-2.576;2023-03-21T06:50:12;10.50;99.90
7686;DHT22;3885;51.474;-2.576;2023-03-21T06:52:39;10.60;99.90
7686;DHT22;3885;51.474;-2.576;2023-03-21T06:55:06;10.60;99.90
7686;DHT22;3885;51.474;-2.576;2023-03-21T06:57:34;10.60;99.90
7686;DHT22;3885;51.474;-2.576;2023-03-21T07:00:01;10.60;99.90
7686;DHT22;3885;51.474;-2.576;2023-03-21T07:02:29;10.70;99.90
7686;DHT22;3885;51.474;-2.576;2023-03-21T07:04:58;10.70;99.90
7686;DHT22;3885;51.474;-2.576;2023-03-21T07:14:49;10.90;99.90
7686;DHT22;3885;51.474;-2.576;2023-03-21T07:17:16;10.90;99.90
7686;DHT22;3885;51.474;-2.576;2023-03-21T07:19:43;10.90;99.90
7686;DHT22;3885;51.474;-2.576;2023-03-21T07:24:38;10.90;99.90
7686;DHT22;3885;51.474;-2.576;2023-03-21T07:27:05;10.90;99.90
7686;DHT22;3885;51.474;-2.576;2023-03-21T07:29:32;11.00;99.90
7686;DHT22;3885;51.474;-2.576;2023-03-21T07:34:27;11.20;99.90
7686;DHT22;3885;51.474;-2.576;2023-03-21T07:39:26;11.30;99.90
7686;DHT22;3885;51.474;-2.576;2023-03-21T07:41:54;11.40;99.90
7686;DHT22;3885;51.474;-2.576;2023-03-21T07:46:49;11.50;99.90
7686;DHT22;3885;51.474;-2.576;2023-03-21T07:49:16;11.50;99.90
7686;DHT22;3885;51.474;-2.576;2023-03-21T07:51:42;11.50;99.90
7686;DHT22;3885;51.474;-2.576;2023-03-21T07:54:09;11.60;99.90
7686;DHT22;3885;51.474;-2.576;2023-03-21T07:56:38;11.60;99.90
7686;DHT22;3885;51.474;-2.576;2023-03-21T08:03:59;12.00;99.90
7686;DHT22;3885;51.474;-2.576;2023-03-21T08:06:27;12.00;99.90
7686;DHT22;3885;51.474;-2.576;2023-03-21T08:08:56;12.00;99.90
7686;DHT22;3885;51.474;-2.576;2023-03-21T08:21:15;12.30;99.90
7686;DHT22;3885;51.474;-2.576;2023-03-21T08:23:42;12.40;99.90
7686;DHT22;3885;51.474;-2.576;2023-03-21T08:26:09;12.40;99.90
7686;DHT22;3885;51.474;-2.576;2023-03-21T08:28:40;12.40;99.90
7686;DHT22;3885;51.474;-2.576;2023-03-21T08:31:10;12.40;99.90
7686;DHT22;3885;51.474;-2.576;2023-03-21T08:33:37;12.50;99.90
7686;DHT22;3885;51.474;-2.576;2023-03-21T08:38:32;12.70;99.90
7686;DHT22;3885;51.474;-2.576;2023-03-21T08:40:59;12.80;99.90
7686;DHT22;3885;51.474;-2.576;2023-03-21T08:45:53;12.90;99.90
7686;DHT22;3885;51.474;-2.576;2023-03-21T08:48:22;13.00;99.90
7686;DHT22;3885;51.474;-2.576;2023-03-21T08:53:16;12.90;99.90
7686;DHT22;3885;51.474;-2.576;2023-03-21T08:55:43;12.80;99.90
7686;DHT22;3885;51.474;-2.576;2023-03-21T08:58:10;12.90;99.90
7686;DHT22;3885;51.474;-2.576;2023-03-21T09:00:37;12.70;99.90
7686;DHT22;3885;51.474;-2.576;2023-03-21T09:05:33;12.50;99.90
7686;DHT22;3885;51.474;-2.576;2023-03-21T09:08:01;12.40;99.90
7686;DHT22;3885;51.474;-2.576;2023-03-21T09:10:28;12.30;99.90
7686;DHT22;3885;51.474;-2.576;2023-03-21T09:12:56;12.30;99.90
7686;DHT22;3885;51.474;-2.576;2023-03-21T09:15:24;12.20;99.90
7686;DHT22;3885;51.474;-2.576;2023-03-21T09:17:53;11.90;99.90
7686;DHT22;3885;51.474;-2.576;2023-03-21T09:20:24;11.90;99.90
7686;DHT22;3885;51.474;-2.576;2023-03-21T09:22:56;12.00;99.90
7686;DHT22;3885;51.474;-2.576;2023-03-21T09:25:24;12.00;99.90
7686;DHT22;3885;51.474;-2.576;2023-03-21T09:27:55;12.10;99.90
7686;DHT22;3885;51.474;-2.576;2023-03-21T09:30:22;12.10;99.90
7686;DHT22;3885;51.474;-2.576;2023-03-21T09:32:50;12.10;99.90
7686;DHT22;3885;51.474;-2.576;2023-03-21T09:35:19;12.00;99.90
7686;DHT22;3885;51.474;-2.576;2023-03-21T09:40:18;12.20;99.90
7686;DHT22;3885;51.474;-2.576;2023-03-21T09:42:55;12.50;99.90
7686;DHT22;3885;51.474;-2.576;2023-03-21T09:45:30;12.70;99.90
7686;DHT22;3885;51.474;-2.576;2023-03-21T09:50:30;13.00;99.90
7686;DHT22;3885;51.474;-2.576;2023-03-21T09:52:59;13.10;99.90
7686;DHT22;3885;51.474;-2.576;2023-03-21T09:55:31;13.20;99.90
7686;DHT22;3885;51.474;-2.576;2023-03-21T09:58:05;13.30;99.90
7686;DHT22;3885;51.474;-2.576;2023-03-21T10:00:36;13.40;99.90
7686;DHT22;3885;51.474;-2.576;2023-03-21T10:03:07;13.50;99.90
7686;DHT22;3885;51.474;-2.576;2023-03-21T10:05:40;13.60;99.90
7686;DHT22;3885;51.474;-2.576;2023-03-21T10:10:47;13.50;99.90
7686;DHT22;3885;51.474;-2.576;2023-03-21T10:13:16;13.50;99.90
7686;DHT22;3885;51.474;-2.576;2023-03-21T10:18:18;13.70;99.90
7686;DHT22;3885;51.474;-2.576;2023-03-21T10:20:47;13.70;99.90
7686;DHT22;3885;51.474;-2.576;2023-03-21T10:25:48;13.50;99.90
7686;DHT22;3885;51.474;-2.576;2023-03-21T10:28:17;13.40;99.90
7686;DHT22;3885;51.474;-2.576;2023-03-21T10:30:47;13.50;99.90
7686;DHT22;3885;51.474;-2.576;2023-03-21T10:33:18;13.40;99.90
7686;DHT22;3885;51.474;-2.576;2023-03-21T10:40:46;13.40;99.90
7686;DHT22;3885;51.474;-2.576;2023-03-21T10:46:07;13.60;99.90
7686;DHT22;3885;51.474;-2.576;2023-03-21T10:48:36;13.80;99.90
7686;DHT22;3885;51.474;-2.576;2023-03-21T10:51:06;14.00;99.90
7686;DHT22;3885;51.474;-2.576;2023-03-21T10:53:37;14.00;99.90
7686;DHT22;3885;51.474;-2.576;2023-03-21T10:56:08;14.20;99.90
7686;DHT22;3885;51.474;-2.576;2023-03-21T10:58:41;14.30;99.90
7686;DHT22;3885;51.474;-2.576;2023-03-21T11:08:42;14.20;99.90
7686;DHT22;3885;51.474;-2.576;2023-03-21T11:11:19;14.40;99.90
7686;DHT22;3885;51.474;-2.576;2023-03-21T11:16:23;13.90;99.90
7686;DHT22;3885;51.474;-2.576;2023-03-21T11:21:23;13.50;99.90
7686;DHT22;3885;51.474;-2.576;2023-03-21T11:33:53;13.30;99.90
7686;DHT22;3885;51.474;-2.576;2023-03-21T11:36:30;13.30;99.90
7686;DHT22;3885;51.474;-2.576;2023-03-21T11:39:11;13.20;99.90
7686;DHT22;3885;51.474;-2.576;2023-03-21T11:44:25;13.40;99.90
7686;DHT22;3885;51.474;-2.576;2023-03-21T11:46:52;13.60;99.90
7686;DHT22;3885;51.474;-2.576;2023-03-21T11:49:20;13.80;99.90
7686;DHT22;3885;51.474;-2.576;2023-03-21T11:51:53;13.80;99.90
7686;DHT22;3885;51.474;-2.576;2023-03-21T11:54:28;13.90;99.90
7686;DHT22;3885;51.474;-2.576;2023-03-21T11:57:04;13.80;99.90
7686;DHT22;3885;51.474;-2.576;2023-03-21T11:59:38;13.80;99.90
7686;DHT22;3885;51.474;-2.576;2023-03-21T12:05:12;13.90;99.90
7686;DHT22;3885;51.474;-2.576;2023-03-21T12:07:50;14.10;99.90
7686;DHT22;3885;51.474;-2.576;2023-03-21T12:10:30;14.40;99.90
7686;DHT22;3885;51.474;-2.576;2023-03-21T12:15:56;14.70;99.90
7686;DHT22;3885;51.474;-2.576;2023-03-21T12:21:03;15.10;99.90
7686;DHT22;3885;51.474;-2.576;2023-03-21T12:23:43;15.20;99.90
7686;DHT22;3885;51.474;-2.576;2023-03-21T12:26:19;14.90;99.90
7686;DHT22;3885;51.474;-2.576;2023-03-21T12:31:27;14.90;99.90
7686;DHT22;3885;51.474;-2.576;2023-03-21T12:34:07;14.80;99.90
7686;DHT22;3885;51.474;-2.576;2023-03-21T12:39:36;15.00;99.90
7686;DHT22;3885;51.474;-2.576;2023-03-21T12:42:20;14.80;99.90
7686;DHT22;3885;51.474;-2.576;2023-03-21T12:44:57;14.80;99.90
7686;DHT22;3885;51.474;-2.576;2023-03-21T12:49:58;14.90;99.90
7686;DHT22;3885;51.474;-2.576;2023-03-21T12:54:59;14.90;99.90
7686;DHT22;3885;51.474;-2.576;2023-03-21T13:00:02;14.90;99.90
7686;DHT22;3885;51.474;-2.576;2023-03-21T13:05:12;15.10;99.90
7686;DHT22;3885;51.474;-2.576;2023-03-21T13:10:15;15.00;99.90
7686;DHT22;3885;51.474;-2.576;2023-03-21T13:12:54;14.70;99.90
7686;DHT22;3885;51.474;-2.576;2023-03-21T13:15:54;14.70;99.90
7686;DHT22;3885;51.474;-2.576;2023-03-21T13:18:32;14.90;99.90
7686;DHT22;3885;51.474;-2.576;2023-03-21T13:21:04;15.10;99.90
7686;DHT22;3885;51.474;-2.576;2023-03-21T13:23:37;15.20;99.90
7686;DHT22;3885;51.474;-2.576;2023-03-21T13:26:08;15.20;99.90
7686;DHT22;3885;51.474;-2.576;2023-03-21T13:28:38;15.30;99.90
7686;DHT22;3885;51.474;-2.576;2023-03-21T13:33:47;15.50;99.90
7686;DHT22;3885;51.474;-2.576;2023-03-21T13:36:15;15.60;99.90
7686;DHT22;3885;51.474;-2.576;2023-03-21T13:38:49;15.50;99.90
7686;DHT22;3885;51.474;-2.576;2023-03-21T13:41:19;15.50;99.90
7686;DHT22;3885;51.474;-2.576;2023-03-21T13:43:51;15.60;99.90
7686;DHT22;3885;51.474;-2.576;2023-03-21T13:49:25;15.50;99.90
7686;DHT22;3885;51.474;-2.576;2023-03-21T13:51:54;15.60;99.90
7686;DHT22;3885;51.474;-2.576;2023-03-21T13:54:27;15.60;99.90
7686;DHT22;3885;51.474;-2.576;2023-03-21T14:02:26;15.50;99.90
7686;DHT22;3885;51.474;-2.576;2023-03-21T14:04:58;15.40;99.90
7686;DHT22;3885;51.474;-2.576;2023-03-21T14:07:27;15.20;99.90
7686;DHT22;3885;51.474;-2.576;2023-03-21T14:09:59;15.00;99.90
7686;DHT22;3885;51.474;-2.576;2023-03-21T14:12:29;15.20;99.90
7686;DHT22;3885;51.474;-2.576;2023-03-21T14:20:18;14.90;99.90
7686;DHT22;3885;51.474;-2.576;2023-03-21T14:25:15;14.70;99.90
7686;DHT22;3885;51.474;-2.576;2023-03-21T14:30:19;14.60;99.90
7686;DHT22;3885;51.474;-2.576;2023-03-21T14:32:47;14.60;99.90
7686;DHT22;3885;51.474;-2.576;2023-03-21T14:35:16;14.70;99.90
7686;DHT22;3885;51.474;-2.576;2023-03-21T14:42:48;14.80;99.90
7686;DHT22;3885;51.474;-2.576;2023-03-21T14:45:17;14.80;99.90
7686;DHT22;3885;51.474;-2.576;2023-03-21T14:47:56;14.80;99.90
7686;DHT22;3885;51.474;-2.576;2023-03-21T14:52:55;14.80;99.90
7686;DHT22;3885;51.474;-2.576;2023-03-21T14:55:23;14.90;99.90
7686;DHT22;3885;51.474;-2.576;2023-03-21T14:57:50;15.10;99.90
7686;DHT22;3885;51.474;-2.576;2023-03-21T15:02:50;14.80;99.90
7686;DHT22;3885;51.474;-2.576;2023-03-21T15:05:25;14.90;99.90
7686;DHT22;3885;51.474;-2.576;2023-03-21T15:07:54;14.70;99.90
7686;DHT22;3885;51.474;-2.576;2023-03-21T15:10:23;14.90;99.90
7686;DHT22;3885;51.474;-2.576;2023-03-21T15:12:52;15.00;99.90
7686;DHT22;3885;51.474;-2.576;2023-03-21T15:15:20;15.10;99.90
7686;DHT22;3885;51.474;-2.576;2023-03-21T15:17:48;15.20;99.90
7686;DHT22;3885;51.474;-2.576;2023-03-21T15:20:18;15.00;99.90
7686;DHT22;3885;51.474;-2.576;2023-03-21T15:22:49;14.90;99.90
7686;DHT22;3885;51.474;-2.576;2023-03-21T15:25:21;14.70;99.90
7686;DHT22;3885;51.474;-2.576;2023-03-21T15:27:51;14.70;99.90
7686;DHT22;3885;51.474;-2.576;2023-03-21T15:30:21;14.60;99.90
7686;DHT22;3885;51.474;-2.576;2023-03-21T15:32:49;14.60;99.90
7686;DHT22;3885;51.474;-2.576;2023-03-21T15:35:20;14.50;99.90
7686;DHT22;3885;51.474;-2.576;2023-03-21T15:37:54;14.40;99.90
7686;DHT22;3885;51.474;-2.576;2023-03-21T15:40:23;14.30;99.90
7686;DHT22;3885;51.474;-2.576;2023-03-21T15:42:50;14.30;99.90
7686;DHT22;3885;51.474;-2.576;2023-03-21T15:45:29;14.40;99.90
7686;DHT22;3885;51.474;-2.576;2023-03-21T15:47:59;14.30;99.90
7686;DHT22;3885;51.474;-2.576;2023-03-21T15:50:32;14.20;99.90
7686;DHT22;3885;51.474;-2.576;2023-03-21T15:53:03;14.10;99.90
7686;DHT22;3885;51.474;-2.576;2023-03-21T15:55:36;14.20;99.90
7686;DHT22;3885;51.474;-2.576;2023-03-21T15:58:06;14.10;99.90
7686;DHT22;3885;51.474;-2.576;2023-03-21T16:00:38;13.90;99.90
7686;DHT22;3885;51.474;-2.576;2023-03-21T16:03:08;14.10;99.90
7686;DHT22;3885;51.474;-2.576;2023-03-21T16:05:36;14.10;99.90
7686;DHT22;3885;51.474;-2.576;2023-03-21T16:08:17;14.10;99.90
7686;DHT22;3885;51.474;-2.576;2023-03-21T16:10:44;14.20;99.90
7686;DHT22;3885;51.474;-2.576;2023-03-21T16:15:41;14.00;99.90
7686;DHT22;3885;51.474;-2.576;2023-03-21T16:18:11;13.90;99.90
7686;DHT22;3885;51.474;-2.576;2023-03-21T16:20:41;13.90;99.90
7686;DHT22;3885;51.474;-2.576;2023-03-21T16:25:37;13.70;99.90
7686;DHT22;3885;51.474;-2.576;2023-03-21T16:28:09;13.70;99.90
7686;DHT22;3885;51.474;-2.576;2023-03-21T16:35:32;13.70;99.90
7686;DHT22;3885;51.474;-2.576;2023-03-21T16:37:59;13.70;99.90
7686;DHT22;3885;51.474;-2.576;2023-03-21T16:42:57;13.70;99.90
7686;DHT22;3885;51.474;-2.576;2023-03-21T16:50:23;13.70;99.90
7686;DHT22;3885;51.474;-2.576;2023-03-21T16:57:48;13.70;99.90
7686;DHT22;3885;51.474;-2.576;2023-03-21T17:02:48;13.80;99.90
7686;DHT22;3885;51.474;-2.576;2023-03-21T17:07:42;13.60;99.90
7686;DHT22;3885;51.474;-2.576;2023-03-21T17:12:43;13.50;99.90
7686;DHT22;3885;51.474;-2.576;2023-03-21T17:15:13;13.50;99.90
7686;DHT22;3885;51.474;-2.576;2023-03-21T17:17:40;13.40;99.90
7686;DHT22;3885;51.474;-2.576;2023-03-21T17:20:15;13.30;99.90
7686;DHT22;3885;51.474;-2.576;2023-03-21T17:22:43;13.30;99.90
7686;DHT22;3885;51.474;-2.576;2023-03-21T17:25:10;13.20;99.90
7686;DHT22;3885;51.474;-2.576;2023-03-21T17:27:38;13.20;99.90
7686;DHT22;3885;51.474;-2.576;2023-03-21T17:30:18;13.20;99.90
7686;DHT22;3885;51.474;-2.576;2023-03-21T17:37:41;13.10;99.90
7686;DHT22;3885;51.474;-2.576;2023-03-21T17:40:15;13.00;99.90
7686;DHT22;3885;51.474;-2.576;2023-03-21T17:45:11;12.90;99.90
7686;DHT22;3885;51.474;-2.576;2023-03-21T17:55:07;12.90;99.90
7686;DHT22;3885;51.474;-2.576;2023-03-21T17:57:34;12.90;99.90
7686;DHT22;3885;51.474;-2.576;2023-03-21T18:00:03;12.90;99.90
7686;DHT22;3885;51.474;-2.576;2023-03-21T18:02:34;12.90;99.90
7686;DHT22;3885;51.474;-2.576;2023-03-21T18:07:31;12.80;99.90
7686;DHT22;3885;51.474;-2.576;2023-03-21T18:09:59;12.70;99.90
7686;DHT22;3885;51.474;-2.576;2023-03-21T18:12:26;12.70;99.90
7686;DHT22;3885;51.474;-2.576;2023-03-21T18:17:20;12.70;99.90
7686;DHT22;3885;51.474;-2.576;2023-03-21T18:19:47;12.60;99.90
7686;DHT22;3885;51.474;-2.576;2023-03-21T18:22:15;12.60;99.90
7686;DHT22;3885;51.474;-2.576;2023-03-21T18:24:42;12.60;99.90
7686;DHT22;3885;51.474;-2.576;2023-03-21T18:27:09;12.50;99.90
7686;DHT22;3885;51.474;-2.576;2023-03-21T18:29:37;12.50;99.90
7686;DHT22;3885;51.474;-2.576;2023-03-21T18:34:32;12.50;99.90
7686;DHT22;3885;51.474;-2.576;2023-03-21T18:36:59;12.50;99.90
7686;DHT22;3885;51.474;-2.576;2023-03-21T18:41:54;12.50;99.90
7686;DHT22;3885;51.474;-2.576;2023-03-21T18:46:54;12.50;99.90
7686;DHT22;3885;51.474;-2.576;2023-03-21T18:49:22;12.50;99.90
7686;DHT22;3885;51.474;-2.576;2023-03-21T18:51:50;12.40;99.90
7686;DHT22;3885;51.474;-2.576;2023-03-21T18:54:17;12.30;99.90
7686;DHT22;3885;51.474;-2.576;2023-03-21T18:56:46;12.30;99.90
7686;DHT22;3885;51.474;-2.576;2023-03-21T18:59:16;12.30;99.90
7686;DHT22;3885;51.474;-2.576;2023-03-21T19:06:41;12.10;99.90
7686;DHT22;3885;51.474;-2.576;2023-03-21T19:11:35;12.00;99.90
7686;DHT22;3885;51.474;-2.576;2023-03-21T19:14:08;11.90;99.90
7686;DHT22;3885;51.474;-2.576;2023-03-21T19:19:02;11.80;99.90
7686;DHT22;3885;51.474;-2.576;2023-03-21T19:21:29;11.80;99.90
7686;DHT22;3885;51.474;-2.576;2023-03-21T19:28:51;11.60;99.90
7686;DHT22;3885;51.474;-2.576;2023-03-21T19:33:48;11.50;99.90
7686;DHT22;3885;51.474;-2.576;2023-03-21T19:36:16;11.50;99.90
7686;DHT22;3885;51.474;-2.576;2023-03-21T19:38:43;11.50;99.90
7686;DHT22;3885;51.474;-2.576;2023-03-21T19:41:10;11.50;99.90
7686;DHT22;3885;51.474;-2.576;2023-03-21T19:46:04;11.50;99.90
7686;DHT22;3885;51.474;-2.576;2023-03-21T19:48:33;11.30;99.90
7686;DHT22;3885;51.474;-2.576;2023-03-21T19:51:01;11.30;99.90
7686;DHT22;3885;51.474;-2.576;2023-03-21T19:53:28;11.30;99.90
7686;DHT22;3885;51.474;-2.576;2023-03-21T19:55:55;11.20;99.90
7686;DHT22;3885;51.474;-2.576;2023-03-21T19:58:22;11.20;99.90
7686;DHT22;3885;51.474;-2.576;2023-03-21T20:00:49;11.20;99.90
7686;DHT22;3885;51.474;-2.576;2023-03-21T20:05:45;11.20;99.90
7686;DHT22;3885;51.474;-2.576;2023-03-21T20:08:12;11.10;99.90
7686;DHT22;3885;51.474;-2.576;2023-03-21T20:10:39;11.10;99.90
7686;DHT22;3885;51.474;-2.576;2023-03-21T20:13:07;11.10;99.90
7686;DHT22;3885;51.474;-2.576;2023-03-21T20:18:04;10.90;99.90
7686;DHT22;3885;51.474;-2.576;2023-03-21T20:20:31;10.90;99.90
7686;DHT22;3885;51.474;-2.576;2023-03-21T20:23:00;11.00;99.90
7686;DHT22;3885;51.474;-2.576;2023-03-21T20:25:27;11.00;99.90
7686;DHT22;3885;51.474;-2.576;2023-03-21T20:27:54;10.90;99.90
7686;DHT22;3885;51.474;-2.576;2023-03-21T20:32:49;11.00;99.90
7686;DHT22;3885;51.474;-2.576;2023-03-21T20:35:16;11.00;99.90
7686;DHT22;3885;51.474;-2.576;2023-03-21T20:37:44;10.90;99.90
7686;DHT22;3885;51.474;-2.576;2023-03-21T20:40:16;10.90;99.90
7686;DHT22;3885;51.474;-2.576;2023-03-21T20:42:44;10.90;99.90
7686;DHT22;3885;51.474;-2.576;2023-03-21T20:45:14;10.90;99.90
7686;DHT22;3885;51.474;-2.576;2023-03-21T20:47:41;10.90;99.90
7686;DHT22;3885;51.474;-2.576;2023-03-21T20:50:11;10.90;99.90
7686;DHT22;3885;51.474;-2.576;2023-03-21T20:52:40;10.90;99.90